Pertusola — IBER — position and weather

sailwx.info

Track history (hours):
 
Tides and Currents Weather Stations Pressure Air Temp Water Temp Dewpoint Dewpoint Depression Visibility Wind Speed Wind Dir Waves Ship Positions

Pertusola

Last reported at 2014-Dec-22 22:17 UTC. Time now 2014-Dec-23 00:11 UTC.
Position N 50°09' W 002°08'.

Length 145 m; draft 6.4 m.

Type: Ship (hazmat cat A). MMSI: 247399000.

Date/timePositionNaut miles runAvg speedWind from/ knotsBaromVisibWave heightAir tempDewpointWater temp
2014-Dec-22 22:17N 50°09' W 002°08'34 9.0
2014-Dec-22 18:29N 50°18' W 001°16'2211.7
2014-Dec-22 16:33N 50°24' W 000°42'1313.4
2014-Dec-22 15:33N 50°28' W 000°22'1913.2
2014-Dec-22 14:08N 50°33' E 000°07'712.7
2014-Dec-22 13:33N 50°35' E 000°18'1211.8
2014-Dec-22 12:33N 50°39' E 000°35'1111.0
2014-Dec-22 11:33N 50°45' E 000°50'1010.5
2014-Dec-22 10:33N 50°51' E 001°03'1210.9
2014-Dec-22 09:28N 50°59' E 001°18'1112.4
2014-Dec-22 08:33N 51°06' E 001°32'1414.5
2014-Dec-22 07:34N 51°16' E 001°48'1414.4
2014-Dec-22 06:34N 51°28' E 002°01'1313.4
2014-Dec-22 05:33N 51°38' E 002°15'2412.0
2014-Dec-22 03:33N 51°58' E 002°36'5711.4
2014-Dec-21 22:33N 52°51' E 003°12'8611.7
2014-Dec-21 15:15N 54°03' E 004°30'811.7
2014-Dec-21 14:33N 54°07' E 004°42'1313.1
2014-Dec-21 13:33N 54°14' E 005°01'4912.3
2014-Dec-21 09:32N 54°45' E 006°08'1111.2
2014-Dec-21 08:33N 54°56' E 006°09'223 7.4
2014-Dec-20 02:29N 57°49' E 010°23'1010.3
2014-Dec-20 01:33N 57°49' E 010°41'1211.5
2014-Dec-20 00:33N 57°42' E 010°58'1413.6
2014-Dec-19 23:33N 57°33' E 011°17'1313.4
2014-Dec-19 22:33N 57°22' E 011°31'1413.7
2014-Dec-19 21:33N 57°09' E 011°39'1313.4
2014-Dec-19 20:33N 56°56' E 011°48'1212.4
2014-Dec-19 19:33N 56°44' E 011°51'4213.7
2014-Dec-19 16:29N 56°10' E 011°06'8712.4
2014-Dec-19 09:27N 54°43' E 010°53'1011.3
2014-Dec-19 08:33N 54°38' E 011°08'1313.5
2014-Dec-19 07:33N 54°32' E 011°29'1413.9
2014-Dec-19 06:33N 54°26' E 011°51'1312.7
2014-Dec-19 05:33N 54°30' E 012°12'5413.4
2014-Dec-19 01:31N 54°58' E 013°33'1313.1
2014-Dec-19 00:33N 55°02' E 013°53'1313.1
2014-Dec-18 23:33N 55°10' E 014°12'1313.4
2014-Dec-18 22:33N 55°20' E 014°26'1313.4
2014-Dec-18 21:33N 55°30' E 014°43'1313.3
2014-Dec-18 20:33N 55°36' E 015°03'  
2014-Dec-14 03:10N 55°36' E 015°19'914.6
2014-Dec-14 02:33N 55°32' E 015°05'1514.7
2014-Dec-14 01:33N 55°25' E 014°42'1514.7
2014-Dec-14 00:34N 55°14' E 014°26'1414.4
2014-Dec-13 23:34N 55°02' E 014°10'1514.4
2014-Dec-13 22:33N 54°57' E 013°46'4614.8
2014-Dec-13 19:26N 54°40' E 012°32'1112.7
2014-Dec-13 18:34N 54°33' E 012°17'1312.5
2014-Dec-13 17:33N 54°25' E 012°01'4914.3
2014-Dec-13 14:07N 54°34' E 010°39'1114.0
2014-Dec-13 13:20N 54°30' E 010°21'810.6
2014-Dec-13 12:33N 54°24' E 010°12'3 2.8
2014-Dec-13 11:33N 54°22' E 010°08'0 0.2
2014-Dec-13 10:33N 54°22' E 010°08'0 0.0
2014-Dec-13 09:33N 54°22' E 010°08'3 3.4
2014-Dec-13 08:33N 54°22' E 010°02'6 5.7
2014-Dec-13 07:33N 54°22' E 009°52'7 5.7
2014-Dec-13 06:22N 54°18' E 009°42'6 6.1
2014-Dec-13 05:25N 54°14' E 009°36'12 6.4
2014-Dec-13 03:33N 54°07' E 009°20'4 4.4
2014-Dec-13 02:34N 54°02' E 009°18'0 0.0
2014-Dec-13 01:34N 54°02' E 009°18'5 5.0
2014-Dec-13 00:34N 53°58' E 009°15'5 5.4
2014-Dec-12 23:34N 53°54' E 009°09'0 0.3
2014-Dec-12 22:33N 53°54' E 009°08'  
Track history (hours):
 
Tides and Currents Weather Stations Pressure Air Temp Water Temp Dewpoint Dewpoint Depression Visibility Wind Speed Wind Dir Waves Ship Positions

Pertusola

Last reported at 2014-Dec-22 22:17 UTC. Time now 2014-Dec-23 00:11 UTC.
Position N 50°09' W 002°08'.

Length 145 m; draft 6.4 m.

Type: Ship (hazmat cat A). MMSI: 247399000.

Date/timePositionNaut miles runAvg speedWind from/ knotsBaromVisibWave heightAir tempDewpointWater temp
2014-Dec-22 22:17N 50°09' W 002°08'34 9.0
2014-Dec-22 18:29N 50°18' W 001°16'2211.7
2014-Dec-22 16:33N 50°24' W 000°42'1313.4
2014-Dec-22 15:33N 50°28' W 000°22'1913.2
2014-Dec-22 14:08N 50°33' E 000°07'712.7
2014-Dec-22 13:33N 50°35' E 000°18'1211.8
2014-Dec-22 12:33N 50°39' E 000°35'1111.0
2014-Dec-22 11:33N 50°45' E 000°50'1010.5
2014-Dec-22 10:33N 50°51' E 001°03'1210.9
2014-Dec-22 09:28N 50°59' E 001°18'1112.4
2014-Dec-22 08:33N 51°06' E 001°32'1414.5
2014-Dec-22 07:34N 51°16' E 001°48'1414.4
2014-Dec-22 06:34N 51°28' E 002°01'1313.4
2014-Dec-22 05:33N 51°38' E 002°15'2412.0
2014-Dec-22 03:33N 51°58' E 002°36'5711.4
2014-Dec-21 22:33N 52°51' E 003°12'8611.7
2014-Dec-21 15:15N 54°03' E 004°30'811.7
2014-Dec-21 14:33N 54°07' E 004°42'1313.1
2014-Dec-21 13:33N 54°14' E 005°01'4912.3
2014-Dec-21 09:32N 54°45' E 006°08'1111.2
2014-Dec-21 08:33N 54°56' E 006°09'223 7.4
2014-Dec-20 02:29N 57°49' E 010°23'1010.3
2014-Dec-20 01:33N 57°49' E 010°41'1211.5
2014-Dec-20 00:33N 57°42' E 010°58'1413.6
2014-Dec-19 23:33N 57°33' E 011°17'1313.4
2014-Dec-19 22:33N 57°22' E 011°31'1413.7
2014-Dec-19 21:33N 57°09' E 011°39'1313.4
2014-Dec-19 20:33N 56°56' E 011°48'1212.4
2014-Dec-19 19:33N 56°44' E 011°51'4213.7
2014-Dec-19 16:29N 56°10' E 011°06'8712.4
2014-Dec-19 09:27N 54°43' E 010°53'1011.3
2014-Dec-19 08:33N 54°38' E 011°08'1313.5
2014-Dec-19 07:33N 54°32' E 011°29'1413.9
2014-Dec-19 06:33N 54°26' E 011°51'1312.7
2014-Dec-19 05:33N 54°30' E 012°12'5413.4
2014-Dec-19 01:31N 54°58' E 013°33'1313.1
2014-Dec-19 00:33N 55°02' E 013°53'1313.1
2014-Dec-18 23:33N 55°10' E 014°12'1313.4
2014-Dec-18 22:33N 55°20' E 014°26'1313.4
2014-Dec-18 21:33N 55°30' E 014°43'1313.3
2014-Dec-18 20:33N 55°36' E 015°03'  
2014-Dec-14 03:10N 55°36' E 015°19'914.6
2014-Dec-14 02:33N 55°32' E 015°05'1514.7
2014-Dec-14 01:33N 55°25' E 014°42'1514.7
2014-Dec-14 00:34N 55°14' E 014°26'1414.4
2014-Dec-13 23:34N 55°02' E 014°10'1514.4
2014-Dec-13 22:33N 54°57' E 013°46'4614.8
2014-Dec-13 19:26N 54°40' E 012°32'1112.7
2014-Dec-13 18:34N 54°33' E 012°17'1312.5
2014-Dec-13 17:33N 54°25' E 012°01'4914.3
2014-Dec-13 14:07N 54°34' E 010°39'1114.0
2014-Dec-13 13:20N 54°30' E 010°21'810.6
2014-Dec-13 12:33N 54°24' E 010°12'3 2.8
2014-Dec-13 11:33N 54°22' E 010°08'0 0.2
2014-Dec-13 10:33N 54°22' E 010°08'0 0.0
2014-Dec-13 09:33N 54°22' E 010°08'3 3.4
2014-Dec-13 08:33N 54°22' E 010°02'6 5.7
2014-Dec-13 07:33N 54°22' E 009°52'7 5.7
2014-Dec-13 06:22N 54°18' E 009°42'6 6.1
2014-Dec-13 05:25N 54°14' E 009°36'12 6.4
2014-Dec-13 03:33N 54°07' E 009°20'4 4.4
2014-Dec-13 02:34N 54°02' E 009°18'0 0.0
2014-Dec-13 01:34N 54°02' E 009°18'5 5.0
2014-Dec-13 00:34N 53°58' E 009°15'5 5.4
2014-Dec-12 23:34N 53°54' E 009°09'0 0.3
2014-Dec-12 22:33N 53°54' E 009°08'  

Dump ship's entire track history